Avery, Arkansas
Current Conditions -  °F | °C
As of 7:53 AM on Sunday 21 Dec 2014 (Local Time) from KLLQ Reporting Station
Haze Haze  
Wind Chill: 35°   Ceiling: 7000
Heat Index: 35°   Visibility: 4mi
Dew Point: 33°   Wind: 0mph
Humidity: 92%   Direction: NA
Pressure: 30.18"   Gusts: NA
Location:  33.9283°N, 91.468°W
Report Text: KLLQ 211353Z AUTO 00000KT 4SM BR BKN070 02/01 A3018 RMK AO2 SLP222 T00170006
Loading
Personal Weather Stations






























Interactive Weather Map New forecast layout! Learn more

10-Day Weather Forecast

Advertisements
Track Severe Weather on mobile